Time;durP1;ratioP1;P1;durP2;ratioP2;P2;SDS_P1;SDS_P2;PMS_P1;PMS_P2;Temp;Humidity;BMP_temperature;BMP_pressure;BME280_temperature;BME280_humidity;BME280_pressure;Samples;Min_cycle;Max_cycle;Signal;HPM_P1;HPM_P2
2022/12/10 00:01:13;;;;;;;11.63;7.97;;;0.00;99.90;;;;;;5071492;28;20119;-81
2022/12/10 00:03:39;;;;;;;13.90;9.07;;;0.00;99.90;;;;;;5071444;28;20029;-81
2022/12/10 00:06:07;;;;;;;15.52;8.98;;;0.00;99.90;;;;;;5075471;28;20046;-81
2022/12/10 00:08:33;;;;;;;11.23;7.10;;;0.00;99.90;;;;;;5074995;28;20033;-82
2022/12/10 00:11:01;;;;;;;16.02;9.48;;;-0.10;99.90;;;;;;5075372;28;20090;-82
2022/12/10 00:13:27;;;;;;;16.55;10.07;;;-0.10;99.90;;;;;;5076497;28;20032;-80
2022/12/10 00:15:52;;;;;;;12.30;7.72;;;-0.10;99.90;;;;;;5075240;28;20474;-82
2022/12/10 00:18:18;;;;;;;20.58;11.27;;;-0.10;99.90;;;;;;5076364;28;20035;-81
2022/12/10 00:20:43;;;;;;;19.63;12.73;;;-0.10;99.90;;;;;;5055513;28;20491;-81
2022/12/10 00:23:09;;;;;;;19.70;11.10;;;-0.10;99.90;;;;;;5056418;28;20044;-81
2022/12/10 00:25:34;;;;;;;24.40;12.07;;;-0.10;99.90;;;;;;5056344;28;20104;-81
2022/12/10 00:28:00;;;;;;;19.77;10.55;;;-0.10;99.90;;;;;;5056215;28;20067;-80
2022/12/10 00:30:26;;;;;;;16.42;9.57;;;-0.20;99.90;;;;;;5054896;28;20386;-82
2022/12/10 00:32:51;;;;;;;19.23;11.68;;;-0.20;99.90;;;;;;5056254;28;20025;-82
2022/12/10 00:35:17;;;;;;;22.15;12.55;;;-0.20;99.90;;;;;;5054899;28;20036;-81
2022/12/10 00:37:42;;;;;;;18.13;11.88;;;-0.20;99.90;;;;;;5054866;28;20032;-81
2022/12/10 00:40:10;;;;;;;18.75;11.02;;;-0.20;99.90;;;;;;5055976;28;20032;-82
2022/12/10 00:42:36;;;;;;;19.30;12.02;;;-0.20;99.90;;;;;;5054109;28;20017;-81
2022/12/10 00:45:02;;;;;;;18.60;12.00;;;-0.20;99.90;;;;;;5055399;28;20048;-78
2022/12/10 00:47:27;;;;;;;17.60;10.95;;;-0.20;99.90;;;;;;5054641;28;20041;-78
2022/12/10 00:49:53;;;;;;;21.42;11.70;;;-0.20;99.90;;;;;;5055794;28;20106;-80
2022/12/10 00:52:18;;;;;;;21.42;13.32;;;-0.20;99.90;;;;;;5063927;28;20024;-80
2022/12/10 00:54:44;;;;;;;22.05;12.85;;;-0.20;99.90;;;;;;5075680;28;20104;-79
2022/12/10 00:57:10;;;;;;;20.20;12.50;;;-0.20;99.90;;;;;;5074458;28;20050;-79
2022/12/10 00:59:35;;;;;;;21.17;12.48;;;-0.20;99.90;;;;;;5074319;28;20032;-78
2022/12/10 01:02:01;;;;;;;18.80;10.65;;;-0.20;99.90;;;;;;5074367;28;20433;-79
2022/12/10 01:04:26;;;;;;;21.63;12.20;;;-0.20;99.90;;;;;;5074310;28;20127;-79
2022/12/10 01:06:53;;;;;;;18.33;11.10;;;-0.20;99.90;;;;;;5074377;28;20066;-80
2022/12/10 01:09:24;;;;;;;22.17;11.55;;;-0.20;99.90;;;;;;5074184;28;20032;-81
2022/12/10 01:11:51;;;;;;;18.27;11.00;;;-0.30;99.90;;;;;;5074381;28;20059;-80
2022/12/10 01:14:20;;;;;;;18.60;12.43;;;-0.20;99.90;;;;;;5075542;28;20396;-80
2022/12/10 01:16:46;;;;;;;18.23;10.90;;;-0.20;99.90;;;;;;5075112;28;20024;-81
2022/12/10 01:19:12;;;;;;;22.33;12.40;;;-0.20;99.90;;;;;;5066925;28;20398;-79
2022/12/10 01:21:38;;;;;;;21.80;11.88;;;-0.20;99.90;;;;;;5054055;28;20033;-80
2022/12/10 01:24:04;;;;;;;19.50;12.05;;;-0.20;99.90;;;;;;5054912;28;20371;-79
2022/12/10 01:26:33;;;;;;;16.85;10.80;;;-0.20;99.90;;;;;;5053873;28;20025;-81
2022/12/10 01:29:00;;;;;;;19.65;10.52;;;-0.30;99.90;;;;;;5055250;28;20029;-80
2022/12/10 01:31:31;;;;;;;20.13;12.10;;;-0.20;99.90;;;;;;5055082;28;20082;-81
2022/12/10 01:33:57;;;;;;;22.23;11.95;;;-0.20;99.90;;;;;;5055254;28;20024;-81
2022/12/10 01:36:29;;;;;;;18.73;11.13;;;-0.20;99.90;;;;;;5053783;28;20470;-79
2022/12/10 01:38:56;;;;;;;20.63;12.43;;;-0.20;99.90;;;;;;5053896;28;20021;-79
2022/12/10 01:41:27;;;;;;;18.98;11.32;;;-0.20;99.90;;;;;;5053571;28;20342;-81
2022/12/10 01:43:54;;;;;;;19.33;11.75;;;-0.30;99.90;;;;;;5053953;28;20040;-81
2022/12/10 01:46:21;;;;;;;18.88;11.63;;;-0.20;99.90;;;;;;5054882;28;20091;-81
2022/12/10 01:48:47;;;;;;;20.00;11.20;;;-0.20;99.90;;;;;;5054726;28;20033;-80
2022/12/10 01:51:14;;;;;;;22.48;10.63;;;-0.20;99.90;;;;;;5054630;28;20024;-81
2022/12/10 01:53:40;;;;;;;22.67;13.07;;;-0.20;99.90;;;;;;5068034;28;20056;-79
2022/12/10 01:56:06;;;;;;;24.80;13.27;;;-0.20;99.90;;;;;;5053372;28;20029;-80
2022/12/10 01:58:31;;;;;;;20.75;10.65;;;-0.20;99.90;;;;;;5054392;28;20368;-80
2022/12/10 02:01:02;;;;;;;22.77;11.77;;;-0.20;99.90;;;;;;5053212;28;20025;-79
2022/12/10 02:03:57;;;;;;;19.55;11.57;;;-0.20;99.90;;;;;;5053160;28;20113;-80
2022/12/10 02:06:42;;;;;;;23.00;11.00;;;-0.20;99.90;;;;;;5053264;28;20045;-81
2022/12/10 02:09:33;;;;;;;20.35;11.93;;;-0.20;99.90;;;;;;5054205;28;20037;-81
2022/12/10 02:12:04;;;;;;;22.65;13.60;;;-0.20;99.90;;;;;;5054081;28;20087;-80
2022/12/10 02:14:39;;;;;;;22.73;11.57;;;-0.20;99.90;;;;;;5052978;28;20048;-81
2022/12/10 02:17:23;;;;;;;24.30;11.35;;;-0.20;99.90;;;;;;5053064;28;20028;-79
2022/12/10 02:20:04;;;;;;;22.55;12.30;;;-0.20;99.90;;;;;;5052780;28;20021;-79
2022/12/10 02:22:35;;;;;;;18.50;11.73;;;-0.20;99.90;;;;;;5052934;28;20025;-81
2022/12/10 02:25:04;;;;;;;23.48;12.05;;;-0.20;99.90;;;;;;5052763;28;20021;-80
2022/12/10 02:27:51;;;;;;;20.83;11.70;;;-0.10;99.90;;;;;;5052035;28;20064;-80
2022/12/10 02:30:17;;;;;;;17.83;11.25;;;-0.20;99.90;;;;;;5052670;28;20033;-80
2022/12/10 02:32:45;;;;;;;18.17;11.18;;;-0.20;99.90;;;;;;5052734;28;20029;-79
2022/12/10 02:35:28;;;;;;;20.70;11.20;;;-0.20;99.90;;;;;;5052535;28;20025;-79
2022/12/10 02:38:03;;;;;;;23.58;12.35;;;-0.20;99.90;;;;;;5052712;28;20029;-81
2022/12/10 02:40:32;;;;;;;20.13;11.63;;;-0.20;99.90;;;;;;5053839;28;20067;-79
2022/12/10 02:42:58;;;;;;;16.25;10.80;;;-0.20;99.90;;;;;;5052562;28;20032;-80
2022/12/10 02:45:28;;;;;;;17.23;10.43;;;-0.20;99.90;;;;;;5053590;28;20487;-79
2022/12/10 02:47:58;;;;;;;17.67;9.73;;;-0.20;99.90;;;;;;5052399;28;20029;-81
2022/12/10 02:50:24;;;;;;;18.50;10.48;;;-0.20;99.90;;;;;;5053442;28;20017;-79
2022/12/10 02:52:50;;;;;;;18.00;11.18;;;-0.20;99.90;;;;;;5052225;28;20028;-80
2022/12/10 02:55:19;;;;;;;14.18;9.55;;;-0.30;99.90;;;;;;5052373;28;20106;-80
2022/12/10 02:58:10;;;;;;;19.02;10.63;;;-0.20;99.90;;;;;;5052188;28;20104;-81
2022/12/10 03:00:49;;;;;;;15.18;9.07;;;-0.30;99.90;;;;;;5053339;28;20018;-81
2022/12/10 03:03:37;;;;;;;16.42;8.90;;;-0.20;99.90;;;;;;5053572;28;20024;-80
2022/12/10 03:06:16;;;;;;;15.45;9.80;;;-0.20;99.90;;;;;;5052071;28;20057;-80
2022/12/10 03:08:51;;;;;;;13.90;9.88;;;-0.20;99.90;;;;;;5052076;28;20371;-80
2022/12/10 03:11:20;;;;;;;15.25;9.23;;;-0.10;99.90;;;;;;5053315;28;20105;-81
2022/12/10 03:14:04;;;;;;;15.88;9.77;;;-0.20;99.90;;;;;;5052048;28;20036;-80
2022/12/10 03:16:37;;;;;;;16.58;9.63;;;-0.10;99.90;;;;;;5052018;28;20533;-79
2022/12/10 03:19:10;;;;;;;11.77;8.50;;;-0.10;99.90;;;;;;5051942;28;20025;-81
2022/12/10 03:21:38;;;;;;;12.25;9.55;;;-0.20;99.90;;;;;;5053175;28;20475;-81
2022/12/10 03:24:04;;;;;;;14.48;8.27;;;-0.20;99.90;;;;;;5051954;28;20025;-79
2022/12/10 03:26:30;;;;;;;15.48;9.75;;;-0.20;99.90;;;;;;5051831;28;20017;-81
2022/12/10 03:29:12;;;;;;;13.00;8.15;;;-0.10;99.90;;;;;;5053004;28;20121;-81
2022/12/10 03:31:39;;;;;;;13.63;8.07;;;-0.10;99.90;;;;;;5053079;28;20032;-79
2022/12/10 03:34:06;;;;;;;15.77;8.93;;;-0.20;99.90;;;;;;5051742;28;20024;-80
2022/12/10 03:36:33;;;;;;;13.63;8.15;;;-0.20;99.90;;;;;;5051593;28;20418;-79
2022/12/10 03:39:00;;;;;;;13.27;9.25;;;-0.20;99.90;;;;;;5051722;28;20036;-80
2022/12/10 03:41:25;;;;;;;19.50;7.55;;;-0.20;99.90;;;;;;5051646;28;20024;-79
2022/12/10 03:43:53;;;;;;;14.77;9.20;;;-0.30;99.90;;;;;;5052851;28;20025;-80
2022/12/10 03:46:19;;;;;;;14.90;8.68;;;-0.20;99.90;;;;;;5053157;28;20051;-80
2022/12/10 03:48:45;;;;;;;12.93;8.98;;;-0.20;99.90;;;;;;5051562;28;20041;-80
2022/12/10 03:51:10;;;;;;;14.85;9.13;;;-0.20;99.90;;;;;;5051522;28;20029;-80
2022/12/10 03:53:36;;;;;;;14.38;9.80;;;-0.20;99.90;;;;;;5052733;28;20064;-80
2022/12/10 03:56:01;;;;;;;16.23;9.82;;;-0.20;99.90;;;;;;5051556;28;20025;-80
2022/12/10 03:58:27;;;;;;;13.63;8.80;;;-0.20;99.90;;;;;;5051111;28;20104;-80
2022/12/10 04:00:52;;;;;;;21.00;11.48;;;-0.20;99.90;;;;;;5053330;28;20528;-79
2022/12/10 04:03:18;;;;;;;18.42;11.02;;;-0.20;99.90;;;;;;5051407;28;20501;-81
2022/12/10 04:05:44;;;;;;;15.23;9.48;;;-0.20;99.90;;;;;;5052652;28;20052;-80
2022/12/10 04:08:09;;;;;;;15.23;9.57;;;-0.20;99.90;;;;;;5052623;28;20033;-80
2022/12/10 04:10:36;;;;;;;13.35;9.25;;;-0.20;99.90;;;;;;5051348;28;20509;-80
2022/12/10 04:18:30;;;;;;;17.08;10.13;;;-0.20;99.90;;;;;;5052494;28;20059;-79
2022/12/10 04:29:27;;;;;;;14.10;8.90;;;-0.10;99.90;;;;;;5051487;28;20076;-79
2022/12/10 04:31:53;;;;;;;18.48;11.57;;;-0.10;99.90;;;;;;5051260;28;20013;-79
2022/12/10 04:34:20;;;;;;;18.80;9.93;;;-0.10;99.90;;;;;;5052489;28;20386;-80
2022/12/10 04:36:46;;;;;;;20.20;10.43;;;-0.10;99.90;;;;;;5051190;28;20025;-79
2022/12/10 04:39:11;;;;;;;18.15;11.25;;;-0.10;99.90;;;;;;5051106;28;20025;-79
2022/12/10 04:41:43;;;;;;;19.17;11.18;;;-0.10;99.90;;;;;;5051116;28;20079;-79
2022/12/10 04:44:09;;;;;;;16.10;10.50;;;-0.10;99.90;;;;;;5050529;28;20024;-78
2022/12/10 04:46:35;;;;;;;21.05;10.75;;;0.00;99.90;;;;;;5050983;28;20124;-79
2022/12/10 04:49:01;;;;;;;17.30;10.20;;;-0.10;99.90;;;;;;5050953;28;20064;-79
2022/12/10 04:51:27;;;;;;;16.70;9.95;;;-0.10;99.90;;;;;;5055740;28;20067;-80
2022/12/10 04:53:52;;;;;;;20.58;10.85;;;-0.10;99.90;;;;;;5075986;28;20052;-80
2022/12/10 04:56:18;;;;;;;20.73;11.32;;;-0.10;99.90;;;;;;5076003;28;20492;-80
2022/12/10 04:58:43;;;;;;;23.25;12.73;;;-0.10;99.90;;;;;;5075734;28;20031;-79
2022/12/10 05:01:11;;;;;;;35.25;15.60;;;-0.10;99.90;;;;;;5074542;28;20516;-80
2022/12/10 05:03:37;;;;;;;45.60;19.58;;;-0.10;99.90;;;;;;5075713;28;20031;-80
2022/12/10 05:06:08;;;;;;;42.65;18.50;;;-0.10;99.90;;;;;;5074477;28;20441;-80
2022/12/10 05:08:35;;;;;;;29.80;14.23;;;-0.10;99.90;;;;;;5074158;28;20508;-79
2022/12/10 05:11:06;;;;;;;42.67;19.63;;;-0.10;99.90;;;;;;5074391;28;20051;-79
2022/12/10 05:13:32;;;;;;;27.73;13.48;;;-0.10;99.90;;;;;;5075350;28;20509;-81
2022/12/10 05:15:57;;;;;;;20.10;10.82;;;-0.10;99.90;;;;;;5075518;28;20024;-79
2022/12/10 05:18:23;;;;;;;24.90;12.75;;;-0.10;99.90;;;;;;5073582;28;20021;-79
2022/12/10 05:20:49;;;;;;;30.20;14.68;;;-0.10;99.90;;;;;;5054026;28;20021;-79
2022/12/10 05:23:29;;;;;;;31.88;15.15;;;-0.10;99.90;;;;;;5053994;28;20025;-79
2022/12/10 05:26:08;;;;;;;34.75;17.63;;;-0.10;99.90;;;;;;5053984;28;20506;-81
2022/12/10 05:28:39;;;;;;;31.45;15.43;;;-0.10;99.90;;;;;;5055153;28;20398;-78
2022/12/10 05:31:10;;;;;;;25.80;13.30;;;-0.10;99.90;;;;;;5054102;28;20036;-80
2022/12/10 05:33:36;;;;;;;21.85;12.25;;;-0.10;99.90;;;;;;5053778;28;20021;-80
2022/12/10 05:36:03;;;;;;;27.13;13.80;;;-0.10;99.90;;;;;;5053891;28;20029;-80
2022/12/10 05:38:31;;;;;;;23.30;12.00;;;-0.10;99.90;;;;;;5053819;28;20017;-78
2022/12/10 05:41:05;;;;;;;21.63;12.63;;;-0.10;99.90;;;;;;5053856;28;20029;-78
2022/12/10 05:43:31;;;;;;;23.80;13.45;;;-0.10;99.90;;;;;;5053616;28;20025;-80
2022/12/10 05:46:01;;;;;;;20.23;13.40;;;-0.10;99.90;;;;;;5053192;28;20049;-80
2022/12/10 05:48:27;;;;;;;23.02;13.02;;;-0.10;99.90;;;;;;5051332;28;20090;-78
2022/12/10 05:50:53;;;;;;;19.08;12.30;;;-0.10;99.90;;;;;;5042197;28;20025;-80
2022/12/10 05:53:18;;;;;;;21.77;13.30;;;-0.10;99.90;;;;;;5069237;28;20028;-79
2022/12/10 05:55:44;;;;;;;27.02;17.88;;;-0.10;99.90;;;;;;5072035;28;20025;-79
2022/12/10 05:58:10;;;;;;;29.23;17.45;;;-0.10;99.90;;;;;;5074178;28;20025;-79
2022/12/10 06:00:39;;;;;;;30.42;19.42;;;-0.10;99.90;;;;;;5073286;28;20063;-80
2022/12/10 06:03:05;;;;;;;23.15;14.25;;;-0.10;99.90;;;;;;5073460;28;20021;-80
2022/12/10 06:05:38;;;;;;;22.90;15.02;;;-0.10;99.90;;;;;;5073158;28;20028;-80
2022/12/10 06:08:04;;;;;;;18.55;12.50;;;-0.10;99.90;;;;;;5072254;28;20039;-80
2022/12/10 06:10:30;;;;;;;17.17;10.93;;;-0.10;99.90;;;;;;5070583;28;20025;-80
2022/12/10 06:12:55;;;;;;;17.98;12.13;;;-0.20;99.90;;;;;;5067944;28;20027;-79
2022/12/10 06:15:21;;;;;;;17.88;11.25;;;-0.20;99.90;;;;;;5067278;28;20012;-80
2022/12/10 06:17:46;;;;;;;17.05;11.15;;;-0.20;99.90;;;;;;5067459;28;20027;-80
2022/12/10 06:20:12;;;;;;;18.85;10.07;;;-0.20;99.90;;;;;;5050148;28;20451;-80
2022/12/10 06:22:38;;;;;;;16.13;8.68;;;-0.20;99.90;;;;;;5047447;28;20021;-80
2022/12/10 06:25:05;;;;;;;17.20;10.45;;;-0.20;99.90;;;;;;5050287;28;20017;-79
2022/12/10 06:27:31;;;;;;;14.70;8.68;;;-0.20;99.90;;;;;;5052128;28;20029;-80
2022/12/10 06:29:58;;;;;;;12.65;8.68;;;-0.30;99.90;;;;;;5052772;28;20020;-78
2022/12/10 06:32:24;;;;;;;15.07;9.63;;;-0.30;99.90;;;;;;5054054;28;20475;-80
2022/12/10 06:34:49;;;;;;;16.58;9.23;;;-0.30;99.90;;;;;;5052562;28;20018;-79
2022/12/10 06:37:15;;;;;;;16.00;8.80;;;-0.30;99.90;;;;;;5053973;28;20036;-80
2022/12/10 06:39:41;;;;;;;14.30;8.70;;;-0.30;99.90;;;;;;5052410;28;20048;-79
2022/12/10 06:42:06;;;;;;;15.18;9.27;;;-0.40;99.90;;;;;;5052677;28;20135;-79
2022/12/10 06:44:32;;;;;;;15.77;9.07;;;-0.30;99.90;;;;;;5053553;28;20037;-79
2022/12/10 06:46:57;;;;;;;12.95;9.40;;;-0.30;99.90;;;;;;5052592;28;20537;-80
2022/12/10 06:49:23;;;;;;;15.00;9.55;;;-0.30;99.90;;;;;;5053645;28;20037;-80
2022/12/10 06:51:49;;;;;;;11.32;7.05;;;-0.30;99.90;;;;;;5058170;28;20088;-79
2022/12/10 06:54:14;;;;;;;16.05;10.13;;;-0.30;99.90;;;;;;5054603;28;20076;-78
2022/12/10 06:56:40;;;;;;;12.50;8.77;;;-0.30;99.90;;;;;;5040099;28;20045;-79
2022/12/10 06:59:21;;;;;;;18.77;9.50;;;-0.30;99.90;;;;;;5040902;28;20067;-80
2022/12/10 07:01:47;;;;;;;15.85;9.57;;;-0.30;99.90;;;;;;5040581;28;20032;-81
2022/12/10 07:04:12;;;;;;;14.82;9.40;;;-0.30;99.90;;;;;;5042182;28;20033;-80
2022/12/10 07:06:38;;;;;;;13.85;8.90;;;-0.30;99.90;;;;;;5041736;28;20021;-81
2022/12/10 07:09:04;;;;;;;15.15;10.13;;;-0.20;99.90;;;;;;5042689;28;20091;-80
2022/12/10 07:11:33;;;;;;;12.40;7.38;;;-0.20;99.90;;;;;;5039317;28;20060;-80
2022/12/10 07:13:59;;;;;;;14.48;9.45;;;-0.20;99.90;;;;;;5042189;28;20019;-80
2022/12/10 07:16:30;;;;;;;16.50;10.18;;;-0.20;99.90;;;;;;5051954;28;20100;-80
2022/12/10 07:18:58;;;;;;;15.55;9.52;;;-0.20;99.90;;;;;;5051855;28;20017;-80
2022/12/10 07:21:33;;;;;;;14.77;9.48;;;-0.10;99.90;;;;;;5041656;28;20053;-82
2022/12/10 07:24:04;;;;;;;14.30;9.35;;;-0.10;99.90;;;;;;5041554;28;20074;-80
2022/12/10 07:26:34;;;;;;;16.92;10.25;;;-0.10;99.90;;;;;;5041337;28;20017;-79
2022/12/10 07:29:02;;;;;;;16.70;9.38;;;-0.10;99.90;;;;;;5042122;28;20032;-80
2022/12/10 07:31:27;;;;;;;28.08;15.60;;;-0.10;99.90;;;;;;5043126;28;20040;-80
2022/12/10 07:33:54;;;;;;;28.23;17.58;;;-0.10;99.90;;;;;;5036092;28;20025;-80
2022/12/10 07:36:22;;;;;;;19.35;11.63;;;-0.10;99.90;;;;;;5032915;28;20028;-79
2022/12/10 07:38:48;;;;;;;27.25;13.82;;;-0.10;99.90;;;;;;5032980;28;20034;-80
2022/12/10 07:41:14;;;;;;;34.50;19.77;;;-0.10;99.90;;;;;;5032853;28;20066;-80
2022/12/10 07:43:41;;;;;;;31.33;17.20;;;0.00;99.90;;;;;;5031379;28;20024;-80
2022/12/10 07:46:20;;;;;;;21.83;11.85;;;0.00;99.90;;;;;;5031375;28;20049;-80
2022/12/10 07:48:47;;;;;;;16.80;9.70;;;0.00;99.90;;;;;;5032821;28;20034;-80
2022/12/10 07:51:13;;;;;;;19.40;11.68;;;-0.10;99.90;;;;;;5035175;28;20017;-81
2022/12/10 07:53:39;;;;;;;20.05;11.73;;;0.00;99.90;;;;;;5060181;28;20568;-81
2022/12/10 07:56:05;;;;;;;25.85;14.32;;;-0.10;99.90;;;;;;5055100;28;20053;-81
2022/12/10 07:58:32;;;;;;;20.98;10.73;;;0.00;99.90;;;;;;5069158;28;20048;-77
2022/12/10 08:00:58;;;;;;;20.38;10.15;;;0.00;99.90;;;;;;5057837;28;20147;-81
2022/12/10 08:03:24;;;;;;;22.88;13.70;;;0.00;99.90;;;;;;5066221;28;20103;-79
2022/12/10 08:06:00;;;;;;;19.45;12.02;;;0.00;99.90;;;;;;5072201;28;20059;-79
2022/12/10 08:08:26;;;;;;;16.92;10.88;;;0.00;99.90;;;;;;5071238;28;20060;-79
2022/12/10 08:10:51;;;;;;;27.10;14.43;;;0.00;99.90;;;;;;5065154;28;20107;-78
2022/12/10 08:13:17;;;;;;;18.98;11.10;;;0.00;99.90;;;;;;5062734;28;20025;-78
2022/12/10 08:15:42;;;;;;;20.90;12.30;;;0.00;99.90;;;;;;5070420;28;20017;-78
2022/12/10 08:18:08;;;;;;;19.88;10.73;;;0.10;99.90;;;;;;5056335;28;20025;-82
2022/12/10 08:20:34;;;;;;;15.38;9.77;;;0.10;99.90;;;;;;5054531;28;20035;-77
2022/12/10 08:23:00;;;;;;;28.05;15.48;;;0.10;99.90;;;;;;5071111;28;20025;-76
2022/12/10 08:25:26;;;;;;;21.63;12.18;;;0.00;99.90;;;;;;5042927;28;20056;-76
2022/12/10 08:27:51;;;;;;;21.02;11.80;;;0.10;99.90;;;;;;5042968;28;20047;-76
2022/12/10 08:30:17;;;;;;;18.30;10.48;;;0.10;99.90;;;;;;5047653;28;20029;-76
2022/12/10 08:32:43;;;;;;;29.33;16.65;;;0.10;99.90;;;;;;5036115;28;20026;-76
2022/12/10 08:35:08;;;;;;;26.98;16.13;;;0.10;99.90;;;;;;5036179;28;20042;-77
2022/12/10 08:37:34;;;;;;;27.55;16.02;;;0.10;99.90;;;;;;5034593;28;20028;-77
2022/12/10 08:39:59;;;;;;;24.40;14.25;;;0.10;99.90;;;;;;5047576;28;20029;-77
2022/12/10 08:42:25;;;;;;;25.58;14.52;;;0.20;99.90;;;;;;5054830;28;20112;-76
2022/12/10 08:44:51;;;;;;;24.73;15.90;;;0.20;99.90;;;;;;5054436;28;20402;-77
2022/12/10 08:47:16;;;;;;;25.00;15.35;;;0.20;99.90;;;;;;5054524;28;20397;-77
2022/12/10 08:49:42;;;;;;;24.42;14.32;;;0.30;99.90;;;;;;5054426;28;20021;-77
2022/12/10 08:52:07;;;;;;;26.30;14.52;;;0.30;99.90;;;;;;5063572;28;20478;-78
2022/12/10 08:54:33;;;;;;;25.23;13.63;;;0.20;99.90;;;;;;5066299;28;20025;-76
2022/12/10 08:56:58;;;;;;;32.28;13.88;;;0.20;99.90;;;;;;5043331;28;20048;-78
2022/12/10 08:59:24;;;;;;;167.55;74.20;;;0.20;99.90;;;;;;5046529;28;20394;-78
2022/12/10 09:01:52;;;;;;;112.38;43.22;;;0.20;99.90;;;;;;5055346;28;20063;-81
2022/12/10 09:04:18;;;;;;;46.15;23.00;;;0.10;99.90;;;;;;5055322;28;20100;-79
2022/12/10 09:06:43;;;;;;;33.88;18.77;;;0.10;99.90;;;;;;5045306;28;20144;-79
2022/12/10 09:09:09;;;;;;;29.40;15.63;;;0.10;99.90;;;;;;5043150;28;20041;-79
2022/12/10 09:11:35;;;;;;;41.88;28.35;;;0.10;99.90;;;;;;5041976;28;20033;-79
2022/12/10 09:14:01;;;;;;;35.05;21.45;;;0.00;99.90;;;;;;5045622;28;20497;-76
2022/12/10 09:16:34;;;;;;;51.00;27.75;;;0.00;99.90;;;;;;5043328;28;20033;-77
2022/12/10 09:19:00;;;;;;;36.88;23.85;;;0.10;99.90;;;;;;5041326;28;20018;-77
2022/12/10 09:21:26;;;;;;;30.08;15.55;;;0.00;99.90;;;;;;5053750;28;20036;-76
2022/12/10 09:23:52;;;;;;;45.97;25.55;;;0.00;99.90;;;;;;5054895;28;20036;-79
2022/12/10 09:26:19;;;;;;;47.85;24.90;;;0.10;99.90;;;;;;5055461;28;20380;-79
2022/12/10 09:28:45;;;;;;;36.20;17.40;;;0.10;99.90;;;;;;5054706;28;20487;-79
2022/12/10 09:31:13;;;;;;;53.17;25.52;;;0.10;99.90;;;;;;5046519;28;20143;-82
2022/12/10 09:33:39;;;;;;;39.80;19.42;;;0.10;99.90;;;;;;5054691;28;20032;-80
2022/12/10 09:36:07;;;;;;;47.08;21.83;;;0.10;99.90;;;;;;5053512;28;20116;-76
2022/12/10 09:38:40;;;;;;;43.67;24.08;;;0.00;99.90;;;;;;5054799;28;20551;-79
2022/12/10 09:41:11;;;;;;;;;;;0.10;99.90;;;;;;5055319;28;20025;-79
2022/12/10 09:43:48;;;;;;;47.97;21.92;;;0.10;99.90;;;;;;5054719;28;19909;-80
2022/12/10 09:46:40;;;;;;;41.28;19.15;;;0.10;99.90;;;;;;5053443;28;20115;-76
2022/12/10 09:49:36;;;;;;;46.50;22.75;;;0.10;99.90;;;;;;5053452;28;20083;-77
2022/12/10 09:52:04;;;;;;;58.20;31.00;;;0.10;99.90;;;;;;5053104;28;20017;-76
2022/12/10 09:54:47;;;;;;;43.42;21.38;;;0.10;99.90;;;;;;5052808;28;20124;-77
2022/12/10 09:57:41;;;;;;;54.80;24.38;;;0.10;99.90;;;;;;5053249;28;20036;-79
2022/12/10 10:00:20;;;;;;;51.67;21.38;;;0.00;99.90;;;;;;5053246;28;20040;-77
2022/12/10 10:02:46;;;;;;;50.97;21.75;;;0.00;99.90;;;;;;5046968;28;20025;-77
2022/12/10 10:05:24;;;;;;;67.32;30.88;;;-0.10;99.90;;;;;;5038007;28;20529;-79
2022/12/10 10:08:16;;;;;;;69.63;29.55;;;-0.10;99.90;;;;;;5038988;28;20051;-80
2022/12/10 10:10:44;;;;;;;53.28;23.90;;;-0.10;99.90;;;;;;5034555;28;20025;-80
2022/12/10 10:13:24;;;;;;;58.78;25.88;;;-0.10;99.90;;;;;;5040411;28;20024;-77
2022/12/10 10:15:51;;;;;;;68.05;26.00;;;-0.10;99.90;;;;;;5040515;28;20040;-78
2022/12/10 10:18:36;;;;;;;67.60;26.40;;;-0.10;99.90;;;;;;5039880;28;20032;-77
2022/12/10 10:21:19;;;;;;;73.18;32.15;;;-0.10;99.90;;;;;;5039440;28;20095;-79
2022/12/10 10:23:46;;;;;;;69.93;27.33;;;-0.10;99.90;;;;;;5040261;28;20548;-77
2022/12/10 10:26:11;;;;;;;65.55;28.92;;;-0.20;99.90;;;;;;5040870;28;20099;-77
2022/12/10 10:28:40;;;;;;;59.95;22.88;;;-0.20;99.90;;;;;;5041277;28;20542;-79
2022/12/10 10:31:20;;;;;;;89.55;37.05;;;-0.20;99.90;;;;;;5038530;28;20066;-80
2022/12/10 10:33:59;;;;;;;69.95;28.30;;;-0.20;99.90;;;;;;5041496;28;20021;-80
2022/12/10 10:36:36;;;;;;;73.88;30.77;;;-0.20;99.90;;;;;;5041374;28;20359;-77
2022/12/10 10:39:16;;;;;;;71.18;28.85;;;-0.30;99.90;;;;;;5048848;28;20024;-79
2022/12/10 10:41:43;;;;;;;66.78;26.25;;;-0.30;99.90;;;;;;5043761;28;20029;-80
2022/12/10 10:44:23;;;;;;;55.95;22.63;;;-0.30;99.90;;;;;;5041772;28;20025;-79
2022/12/10 10:46:51;;;;;;;78.30;29.80;;;-0.30;99.90;;;;;;5042028;28;20458;-78
2022/12/10 10:49:24;;;;;;;74.50;28.67;;;-0.30;99.90;;;;;;5041210;28;20057;-78
2022/12/10 10:51:55;;;;;;;65.90;25.40;;;-0.40;99.90;;;;;;5043664;28;20032;-80
2022/12/10 10:54:39;;;;;;;62.65;25.45;;;-0.30;99.90;;;;;;5049398;28;20021;-81
2022/12/10 10:57:33;;;;;;;89.65;36.50;;;-0.40;99.90;;;;;;5051873;28;20147;-80
2022/12/10 11:00:19;;;;;;;86.50;34.17;;;-0.30;99.90;;;;;;5051615;28;20029;-81
2022/12/10 11:02:45;;;;;;;78.88;30.20;;;-0.30;99.90;;;;;;5052089;28;20036;-81
2022/12/10 11:05:25;;;;;;;84.55;33.03;;;-0.30;99.90;;;;;;5051726;28;20017;-82
2022/12/10 11:08:07;;;;;;;100.97;32.20;;;-0.40;99.90;;;;;;5051933;28;20128;-80
2022/12/10 11:10:33;;;;;;;118.90;47.30;;;-0.30;99.90;;;;;;5051845;28;20474;-81
2022/12/10 11:13:04;;;;;;;84.40;32.03;;;-0.30;99.90;;;;;;5051315;28;20531;-80
2022/12/10 11:15:31;;;;;;;94.20;37.72;;;-0.40;99.90;;;;;;5051365;28;20079;-82
2022/12/10 11:17:58;;;;;;;94.28;34.00;;;-0.30;99.90;;;;;;5053134;28;20025;-81
2022/12/10 11:20:33;;;;;;;86.10;33.92;;;-0.30;99.90;;;;;;5051663;28;20082;-79
2022/12/10 11:23:09;;;;;;;79.05;30.02;;;-0.40;99.90;;;;;;5051784;28;20040;-79
2022/12/10 11:25:41;;;;;;;85.55;28.17;;;-0.40;99.90;;;;;;5046510;28;20056;-81
2022/12/10 11:28:28;;;;;;;117.47;44.20;;;-0.40;99.90;;;;;;5054160;28;20051;-79
2022/12/10 11:31:21;;;;;;;92.47;33.17;;;-0.40;99.90;;;;;;5061348;28;20116;-80
2022/12/10 11:34:19;;;;;;;78.88;29.83;;;-0.40;99.90;;;;;;5060711;28;20036;-81
2022/12/10 11:37:03;;;;;;;66.90;26.88;;;-0.50;99.90;;;;;;5051536;28;20478;-81
2022/12/10 11:39:56;;;;;;;57.38;23.08;;;-0.50;99.90;;;;;;5070952;28;20025;-81
2022/12/10 11:42:31;;;;;;;81.95;29.38;;;-0.50;99.90;;;;;;5065335;28;20082;-82
2022/12/10 11:45:18;;;;;;;72.88;22.58;;;-0.50;99.90;;;;;;5060871;28;20052;-82
2022/12/10 11:48:20;;;;;;;110.22;33.10;;;-0.50;99.90;;;;;;5072347;28;20036;-79
2022/12/10 11:50:50;;;;;;;117.47;39.22;;;-0.50;99.90;;;;;;5070871;28;20513;-81
2022/12/10 11:53:38;;;;;;;92.47;30.92;;;-0.50;99.90;;;;;;5040947;28;20025;-79
2022/12/10 11:56:23;;;;;;;86.95;32.65;;;-0.60;99.90;;;;;;5046745;28;20017;-79
2022/12/10 11:59:14;;;;;;;75.80;28.70;;;-0.60;99.90;;;;;;5070114;28;20056;-79
2022/12/10 12:01:58;;;;;;;104.32;40.95;;;-0.60;99.90;;;;;;5069298;28;20105;-82
2022/12/10 12:04:30;;;;;;;78.55;30.65;;;-0.60;99.90;;;;;;5076440;28;20020;-80
2022/12/10 12:07:14;;;;;;;91.25;28.67;;;-0.50;99.90;;;;;;5056529;28;20544;-82
2022/12/10 12:09:58;;;;;;;72.93;24.33;;;-0.60;99.90;;;;;;5075939;28;20047;-79
2022/12/10 12:12:35;;;;;;;73.07;26.98;;;-0.60;99.90;;;;;;5074691;28;20056;-79
2022/12/10 12:15:27;;;;;;;68.97;24.90;;;-0.60;99.90;;;;;;5075019;28;20017;-81
2022/12/10 12:18:25;;;;;;;68.30;25.35;;;-0.60;99.90;;;;;;5058011;28;20037;-80
2022/12/10 12:21:02;;;;;;;91.30;30.75;;;-0.70;99.90;;;;;;5070447;28;20033;-81
2022/12/10 12:23:51;;;;;;;96.45;34.55;;;-0.70;99.90;;;;;;5076252;28;20037;-78
2022/12/10 12:26:28;;;;;;;87.60;31.38;;;-0.70;99.90;;;;;;5076187;28;20024;-80
2022/12/10 12:29:05;;;;;;;68.00;24.23;;;-0.60;99.90;;;;;;5074815;28;20067;-80
2022/12/10 12:31:37;;;;;;;69.00;25.73;;;-0.70;99.90;;;;;;5074815;28;20051;-77
2022/12/10 12:34:36;;;;;;;86.05;29.17;;;-0.70;99.90;;;;;;5067601;28;20028;-77
2022/12/10 12:37:02;;;;;;;88.65;32.58;;;-0.70;99.90;;;;;;5075055;28;20032;-78
2022/12/10 12:39:43;;;;;;;86.75;31.60;;;-0.70;99.90;;;;;;5074431;28;20465;-77
2022/12/10 12:42:47;;;;;;;80.15;32.63;;;-0.70;99.90;;;;;;5075376;28;20099;-76
2022/12/10 12:45:16;;;;;;;85.85;34.65;;;-0.70;99.90;;;;;;5036743;28;20063;-79
2022/12/10 12:47:59;;;;;;;83.43;33.88;;;-0.60;99.90;;;;;;5028177;28;20037;-77
2022/12/10 12:50:41;;;;;;;81.10;31.58;;;-0.60;99.90;;;;;;5055957;28;20501;-78
2022/12/10 12:53:12;;;;;;;82.05;31.77;;;-0.70;99.90;;;;;;5070295;28;20066;-78
2022/12/10 12:56:02;;;;;;;99.47;33.78;;;-0.70;99.90;;;;;;5074230;28;20111;-77
2022/12/10 12:58:39;;;;;;;88.47;35.05;;;-0.70;99.90;;;;;;5061801;28;20021;-79
2022/12/10 13:01:33;;;;;;;84.78;32.50;;;-0.70;99.90;;;;;;5074358;28;20048;-76
2022/12/10 13:03:59;;;;;;;64.15;25.88;;;-0.70;99.90;;;;;;5075626;28;20028;-77